createdAt,value
2023-03-04T00:01:23.154Z,87.92
2023-03-04T00:04:31.568Z,87.32
2023-03-04T00:07:39.926Z,87.28
2023-03-04T00:10:48.165Z,86.80
2023-03-04T00:13:58.138Z,87.15
2023-03-04T00:17:07.069Z,87.54
2023-03-04T00:20:15.914Z,87.00
2023-03-04T00:23:24.372Z,88.21
2023-03-04T00:26:32.855Z,87.72
2023-03-04T00:29:42.481Z,87.87
2023-03-04T00:32:51.154Z,87.13
2023-03-04T00:35:59.391Z,87.50
2023-03-04T00:39:07.661Z,87.82
2023-03-04T00:42:16.667Z,87.82
2023-03-04T00:45:26.471Z,87.73
2023-03-04T00:48:34.752Z,87.95
2023-03-04T00:51:43.242Z,87.80
2023-03-04T00:54:51.929Z,86.26
2023-03-04T00:58:00.532Z,86.35
2023-03-04T01:01:10.351Z,86.61
2023-03-04T01:04:18.794Z,86.60
2023-03-04T01:07:27.107Z,86.73
2023-03-04T01:10:38.788Z,87.25
2023-03-04T01:13:46.995Z,87.02
2023-03-04T01:16:56.527Z,87.74
2023-03-04T01:20:08.042Z,86.21
2023-03-04T01:23:17.660Z,85.45
2023-03-04T01:26:25.758Z,86.94
2023-03-04T01:29:34.575Z,87.10
2023-03-04T01:32:45.096Z,87.13
2023-03-04T01:35:53.518Z,88.10
2023-03-04T01:39:01.813Z,86.99
2023-03-04T01:42:19.527Z,87.53
2023-03-04T01:45:28.337Z,87.19
2023-03-04T01:48:39.999Z,87.01
2023-03-04T01:51:52.488Z,86.44
2023-03-04T01:55:01.476Z,86.23
2023-03-04T01:58:13.164Z,86.83
2023-03-04T02:01:21.842Z,87.36
2023-03-04T02:04:35.332Z,87.21
2023-03-04T02:07:44.135Z,87.68
2023-03-04T02:10:55.934Z,87.22
2023-03-04T02:14:04.922Z,87.28
2023-03-04T02:17:14.548Z,87.70
2023-03-04T02:20:49.536Z,87.99
2023-03-04T02:24:15.254Z,87.70
2023-03-04T02:27:25.033Z,87.79
2023-03-04T02:30:33.984Z,88.04
2023-03-04T02:33:42.436Z,88.16
2023-03-04T02:36:53.901Z,88.01
2023-03-04T02:40:02.287Z,88.13
2023-03-04T02:43:13.449Z,87.82
2023-03-04T02:46:22.358Z,87.09
2023-03-04T02:49:33.707Z,87.54
2023-03-04T02:52:42.057Z,87.04
2023-03-04T02:55:50.685Z,87.92
2023-03-04T02:59:02.545Z,87.89
2023-03-04T03:02:11.593Z,87.69
2023-03-04T03:05:21.017Z,87.94
2023-03-04T03:08:30.828Z,87.48
2023-03-04T03:11:39.270Z,88.50
2023-03-04T03:14:49.428Z,87.27
2023-03-04T03:18:00.866Z,88.00
2023-03-04T03:21:09.173Z,88.00
2023-03-04T03:24:18.067Z,88.27
2023-03-04T03:27:26.223Z,87.72
2023-03-04T03:30:36.391Z,87.76
2023-03-04T03:33:49.392Z,87.79
2023-03-04T03:36:58.276Z,87.55
2023-03-04T03:40:07.880Z,87.78
2023-03-04T03:43:16.396Z,88.22
2023-03-04T03:46:25.893Z,87.99
2023-03-04T03:49:34.275Z,87.94
2023-03-04T03:52:42.401Z,87.88
2023-03-04T03:55:50.514Z,88.60
2023-03-04T03:58:58.622Z,87.75
2023-03-04T04:02:08.352Z,88.22
2023-03-04T04:05:16.735Z,87.96
2023-03-04T04:08:24.843Z,88.02
2023-03-04T04:11:32.990Z,87.43
2023-03-04T04:14:41.473Z,87.89
2023-03-04T04:17:50.986Z,88.21
2023-03-04T04:20:59.086Z,87.90
2023-03-04T04:24:07.363Z,87.56
2023-03-04T04:27:15.951Z,88.23
2023-03-04T04:30:24.052Z,87.53
2023-03-04T04:33:33.495Z,87.52
2023-03-04T04:36:41.859Z,88.01
2023-03-04T04:39:51.748Z,87.51
2023-03-04T04:43:00.132Z,88.83
2023-03-04T04:46:09.758Z,87.88
2023-03-04T04:49:19.651Z,88.91
2023-03-04T04:52:27.842Z,89.25
2023-03-04T04:55:36.268Z,88.83
2023-03-04T04:58:45.233Z,88.95
2023-03-04T05:01:53.411Z,89.22
2023-03-04T05:05:03.132Z,88.75
2023-03-04T05:08:11.616Z,88.39
2023-03-04T05:11:20.942Z,89.04
2023-03-04T05:14:29.075Z,88.98
2023-03-04T05:17:37.470Z,88.66
2023-03-04T05:20:46.966Z,88.73
2023-03-04T05:23:55.158Z,88.86
2023-03-04T05:27:03.524Z,88.77
2023-03-04T05:30:13.778Z,89.81
2023-03-04T05:33:22.724Z,89.54
2023-03-04T05:36:32.302Z,88.89
2023-03-04T05:39:40.457Z,88.96
2023-03-04T05:42:48.561Z,88.65
2023-03-04T05:45:56.883Z,89.38
2023-03-04T05:49:05.017Z,89.07
2023-03-04T05:52:14.547Z,89.00
2023-03-04T05:55:22.736Z,89.48
2023-03-04T05:58:30.887Z,88.90
2023-03-04T06:01:38.989Z,89.84
2023-03-04T06:04:47.054Z,88.95
2023-03-04T06:07:56.499Z,90.13
2023-03-04T06:11:05.614Z,90.00
2023-03-04T06:14:13.924Z,90.07
2023-03-04T06:17:24.104Z,88.98
2023-03-04T06:20:32.810Z,89.19
2023-03-04T06:23:42.580Z,89.31
2023-03-04T06:26:50.774Z,89.96
2023-03-04T06:29:59.415Z,89.82
2023-03-04T06:33:07.581Z,89.04
2023-03-04T06:36:15.814Z,88.86
2023-03-04T06:39:25.290Z,89.16
2023-03-04T06:42:33.426Z,88.52
2023-03-04T06:45:41.800Z,89.46
2023-03-04T06:48:50.341Z,88.19
2023-03-04T06:51:58.602Z,88.55
2023-03-04T06:55:10.434Z,88.67
2023-03-04T06:58:18.696Z,87.66
2023-03-04T07:01:29.679Z,87.82
2023-03-04T07:04:37.895Z,87.09
2023-03-04T07:07:46.047Z,86.74
2023-03-04T07:10:55.518Z,85.64
2023-03-04T07:14:03.708Z,85.77
2023-03-04T07:17:11.939Z,86.14
2023-03-04T07:20:21.734Z,82.91
2023-03-04T07:23:29.875Z,82.59
2023-03-04T07:26:39.904Z,83.87
2023-03-04T07:29:48.046Z,84.39
2023-03-04T07:32:58.902Z,80.88
2023-03-04T07:36:07.633Z,80.58
2023-03-04T07:39:15.968Z,80.91
2023-03-04T07:42:26.092Z,80.17
2023-03-04T07:45:41.074Z,82.33
2023-03-04T07:48:49.196Z,81.29
2023-03-04T07:51:57.361Z,78.78
2023-03-04T07:55:06.344Z,78.11
2023-03-04T07:58:20.006Z,77.55
2023-03-04T08:01:34.620Z,78.04
2023-03-04T08:04:43.454Z,77.94
2023-03-04T08:07:51.768Z,77.37
2023-03-04T08:11:00.005Z,75.88
2023-03-04T08:14:10.302Z,76.00
2023-03-04T08:17:18.682Z,74.44
2023-03-04T08:20:26.900Z,74.18
2023-03-04T08:23:35.058Z,74.91
2023-03-04T08:26:46.592Z,74.37
2023-03-04T08:29:56.110Z,73.17
2023-03-04T08:33:05.176Z,72.34
2023-03-04T08:36:13.540Z,72.50
2023-03-04T08:39:22.093Z,72.42
2023-03-04T08:42:30.188Z,72.09
2023-03-04T08:45:39.628Z,73.32
2023-03-04T08:48:47.817Z,73.57
2023-03-04T08:51:56.068Z,73.45
2023-03-04T08:55:04.524Z,73.04
2023-03-04T08:58:12.935Z,72.25
2023-03-04T09:01:22.850Z,71.71
2023-03-04T09:04:31.171Z,71.05
2023-03-04T09:07:39.626Z,71.76
2023-03-04T09:10:48.672Z,70.13
2023-03-04T09:13:57.032Z,70.86
2023-03-04T09:17:07.249Z,71.23
2023-03-04T09:20:15.645Z,71.15
2023-03-04T09:23:24.276Z,70.31
2023-03-04T09:26:32.433Z,71.40
2023-03-04T09:29:40.692Z,69.88
2023-03-04T09:32:50.895Z,69.27
2023-03-04T09:35:59.560Z,68.73
2023-03-04T09:39:08.208Z,69.37
2023-03-04T09:42:29.107Z,70.92
2023-03-04T09:45:45.711Z,70.13
2023-03-04T09:48:57.730Z,69.14
2023-03-04T09:52:21.789Z,68.53
2023-03-04T09:55:38.226Z,69.72
2023-03-04T09:59:02.937Z,69.19
2023-03-04T10:02:26.873Z,69.82
2023-03-04T10:05:45.208Z,67.81
2023-03-04T10:09:01.169Z,66.19
2023-03-04T10:12:16.684Z,66.57
2023-03-04T10:15:35.145Z,66.61
2023-03-04T10:18:50.950Z,68.33
2023-03-04T10:22:00.974Z,66.89
2023-03-04T10:25:19.672Z,64.70
2023-03-04T10:28:31.557Z,64.20
2023-03-04T10:31:42.173Z,64.68
2023-03-04T10:34:50.572Z,65.46
2023-03-04T10:38:05.081Z,64.37
2023-03-04T10:41:17.897Z,63.83
2023-03-04T10:44:26.748Z,62.66
2023-03-04T10:47:35.277Z,61.01
2023-03-04T10:50:43.410Z,60.88
2023-03-04T10:53:59.616Z,59.58
2023-03-04T10:57:18.191Z,59.47
2023-03-04T11:00:33.449Z,60.70
2023-03-04T11:03:50.359Z,61.50
2023-03-04T11:06:59.542Z,59.30
2023-03-04T11:10:20.398Z,59.51
2023-03-04T11:13:29.163Z,61.94
2023-03-04T11:16:37.787Z,60.37
2023-03-04T11:19:52.419Z,60.86
2023-03-04T11:23:06.609Z,58.98
2023-03-04T11:26:22.563Z,60.54
2023-03-04T11:29:38.501Z,58.06
2023-03-04T11:32:52.605Z,60.03
2023-03-04T11:36:19.753Z,59.98
2023-03-04T11:39:38.175Z,59.31
2023-03-04T11:42:55.183Z,61.90
2023-03-04T11:46:36.660Z,60.00
2023-03-04T11:50:21.459Z,60.74
2023-03-04T11:53:52.868Z,64.11
2023-03-04T11:57:08.822Z,59.85
2023-03-04T12:00:41.447Z,59.71
2023-03-04T12:04:39.127Z,61.17
2023-03-04T12:08:38.796Z,61.97
2023-03-04T12:12:01.292Z,61.22
2023-03-04T12:15:22.164Z,62.17
2023-03-04T12:18:55.857Z,59.90
2023-03-04T12:22:31.119Z,60.98
2023-03-04T12:25:45.543Z,61.64
2023-03-04T12:29:05.278Z,59.03
2023-03-04T12:32:23.552Z,58.83
2023-03-04T12:35:41.901Z,59.34
2023-03-04T12:39:27.323Z,59.68
2023-03-04T12:42:57.652Z,58.02
2023-03-04T12:46:23.515Z,58.38
2023-03-04T12:49:52.940Z,58.97
2023-03-04T12:53:19.203Z,60.11
2023-03-04T12:56:39.126Z,59.19
2023-03-04T12:59:57.898Z,58.96
2023-03-04T13:03:15.872Z,59.59
2023-03-04T13:06:40.784Z,59.74
2023-03-04T13:09:58.495Z,59.87
2023-03-04T13:13:07.472Z,58.68
2023-03-04T13:16:33.687Z,61.31
2023-03-04T13:19:57.121Z,57.80
2023-03-04T13:23:26.410Z,60.11
2023-03-04T13:26:37.452Z,58.35
2023-03-04T13:29:45.685Z,59.87
2023-03-04T13:32:53.886Z,59.99
2023-03-04T13:36:06.161Z,60.50
2023-03-04T13:39:31.722Z,59.04
2023-03-04T13:42:43.695Z,57.76
2023-03-04T13:45:52.354Z,58.37
2023-03-04T13:49:05.503Z,60.14
2023-03-04T13:52:42.436Z,59.90
2023-03-04T13:56:31.401Z,61.35
2023-03-04T13:59:46.374Z,61.00
2023-03-04T14:02:54.486Z,59.95
2023-03-04T14:06:21.271Z,59.30
2023-03-04T14:09:43.603Z,59.79
2023-03-04T14:12:56.897Z,60.91
2023-03-04T14:16:07.131Z,62.35
2023-03-04T14:19:24.105Z,63.03
2023-03-04T14:22:34.927Z,61.21
2023-03-04T14:25:43.297Z,64.01
2023-03-04T14:28:57.696Z,63.38
2023-03-04T14:32:09.063Z,63.51
2023-03-04T14:35:25.409Z,62.96
2023-03-04T14:38:41.659Z,64.27
2023-03-04T14:41:52.660Z,63.96
2023-03-04T14:45:03.906Z,63.30
2023-03-04T14:48:24.302Z,64.96
2023-03-04T14:51:42.694Z,64.84
2023-03-04T14:55:03.460Z,64.72
2023-03-04T14:58:22.379Z,65.08
2023-03-04T15:01:35.450Z,65.34
2023-03-04T15:04:45.944Z,66.14
2023-03-04T15:07:58.347Z,66.61
2023-03-04T15:11:09.714Z,66.30
2023-03-04T15:14:45.028Z,66.57
2023-03-04T15:18:00.309Z,66.48
2023-03-04T15:21:36.763Z,68.09
2023-03-04T15:24:45.143Z,69.14
2023-03-04T15:27:54.517Z,67.94
2023-03-04T15:31:02.887Z,67.92
2023-03-04T15:34:15.368Z,67.88
2023-03-04T15:37:29.008Z,69.01
2023-03-04T15:40:40.181Z,69.41
2023-03-04T15:43:48.460Z,69.80
2023-03-04T15:46:56.875Z,69.52
2023-03-04T15:50:05.680Z,68.48
2023-03-04T15:53:23.470Z,68.36
2023-03-04T15:56:34.894Z,69.13
2023-03-04T15:59:43.206Z,70.57
2023-03-04T16:02:52.038Z,70.27
2023-03-04T16:06:00.710Z,71.33
2023-03-04T16:09:16.656Z,71.72
2023-03-04T16:12:28.002Z,71.55
2023-03-04T16:15:36.281Z,70.83
2023-03-04T16:18:45.178Z,71.42
2023-03-04T16:21:53.907Z,70.98
2023-03-04T16:25:04.003Z,71.02
2023-03-04T16:28:13.561Z,71.66
2023-03-04T16:31:23.453Z,71.34
2023-03-04T16:34:31.892Z,71.21
2023-03-04T16:37:40.812Z,71.75
2023-03-04T16:40:50.594Z,71.75
2023-03-04T16:44:00.790Z,73.00
2023-03-04T16:47:09.107Z,72.50
2023-03-04T16:50:19.918Z,73.21
2023-03-04T16:53:34.669Z,73.29
2023-03-04T16:56:44.295Z,73.22
2023-03-04T16:59:52.568Z,73.75
2023-03-04T17:03:02.351Z,74.40
2023-03-04T17:06:12.503Z,74.15
2023-03-04T17:09:20.830Z,74.46
2023-03-04T17:12:30.555Z,74.62
2023-03-04T17:15:38.845Z,75.16
2023-03-04T17:18:47.449Z,74.75
2023-03-04T17:21:57.847Z,74.36
2023-03-04T17:25:07.406Z,73.93
2023-03-04T17:28:16.952Z,73.51
2023-03-04T17:31:25.155Z,72.87
2023-03-04T17:34:33.800Z,72.33
2023-03-04T17:37:42.099Z,72.26
2023-03-04T17:40:50.186Z,71.65
2023-03-04T17:43:59.708Z,71.64
2023-03-04T17:47:08.012Z,72.39
2023-03-04T17:50:16.251Z,72.69
2023-03-04T17:53:24.606Z,72.45
2023-03-04T17:56:34.933Z,71.98
2023-03-04T17:59:44.444Z,73.47
2023-03-04T18:02:52.666Z,73.97
2023-03-04T18:06:00.776Z,73.15
2023-03-04T18:09:10.042Z,74.28
2023-03-04T18:12:18.203Z,73.39
2023-03-04T18:15:28.090Z,72.80
2023-03-04T18:18:37.121Z,72.69
2023-03-04T18:21:45.220Z,73.67
2023-03-04T18:24:53.533Z,73.17
2023-03-04T18:28:04.753Z,73.31
2023-03-04T18:31:14.380Z,72.49
2023-03-04T18:34:22.575Z,72.90
2023-03-04T18:37:31.081Z,72.54
2023-03-04T18:40:43.141Z,74.43
2023-03-04T18:43:52.035Z,74.89
2023-03-04T18:47:01.732Z,75.04
2023-03-04T18:50:11.854Z,74.08
2023-03-04T18:53:20.508Z,73.41
2023-03-04T18:56:38.145Z,72.77
2023-03-04T18:59:52.234Z,74.16
2023-03-04T19:03:10.394Z,74.56
2023-03-04T19:06:20.063Z,75.73
2023-03-04T19:09:28.405Z,75.36
2023-03-04T19:16:05.816Z,75.25
2023-03-04T19:19:15.625Z,76.16
2023-03-04T19:22:23.753Z,76.43
2023-03-04T19:25:32.150Z,75.02
2023-03-04T19:28:40.702Z,76.33
2023-03-04T19:31:48.996Z,74.34
2023-03-04T19:34:58.499Z,75.26
2023-03-04T19:38:06.772Z,74.97
2023-03-04T19:41:17.984Z,75.17
2023-03-04T19:44:26.425Z,74.89
2023-03-04T19:47:34.545Z,74.69
2023-03-04T19:50:44.220Z,75.30
2023-03-04T19:53:54.545Z,74.82
2023-03-04T19:57:02.960Z,75.03
2023-03-04T20:00:13.397Z,74.70
2023-03-04T20:03:26.696Z,74.31
2023-03-04T20:06:38.419Z,74.62
2023-03-04T20:09:46.703Z,73.42
2023-03-04T20:12:56.329Z,73.81
2023-03-04T20:16:09.296Z,73.54
2023-03-04T20:19:18.231Z,73.30
2023-03-04T20:22:28.181Z,73.25
2023-03-04T20:25:37.334Z,72.41
2023-03-04T20:28:45.590Z,72.60
2023-03-04T20:31:54.019Z,72.99
2023-03-04T20:35:02.282Z,73.22
2023-03-04T20:38:12.457Z,73.26
2023-03-04T20:41:21.331Z,73.34
2023-03-04T20:44:29.830Z,73.72
2023-03-04T20:47:39.738Z,74.06
2023-03-04T20:50:48.760Z,72.23
2023-03-04T20:53:59.038Z,72.71
2023-03-04T20:57:10.758Z,72.38
2023-03-04T21:00:19.853Z,72.65
2023-03-04T21:03:29.082Z,71.39
2023-03-04T21:06:38.898Z,71.87
2023-03-04T21:09:48.802Z,71.43
2023-03-04T21:12:57.024Z,71.63
2023-03-04T21:16:06.213Z,71.83
2023-03-04T21:19:17.953Z,71.47
2023-03-04T21:22:26.910Z,72.44
2023-03-04T21:25:36.329Z,71.43
2023-03-04T21:28:44.920Z,71.37
2023-03-04T21:31:56.596Z,70.95
2023-03-04T21:35:05.664Z,71.10
2023-03-04T21:38:14.081Z,71.64
2023-03-04T21:41:25.395Z,70.77
2023-03-04T21:44:48.186Z,71.78
2023-03-04T21:47:57.697Z,71.49
2023-03-04T21:51:09.341Z,71.19
2023-03-04T21:54:17.884Z,71.50
2023-03-04T21:57:27.773Z,72.40
2023-03-04T22:00:36.189Z,71.07
2023-03-04T22:03:44.366Z,70.95
2023-03-04T22:06:52.546Z,71.76
2023-03-04T22:10:03.033Z,71.08
2023-03-04T22:13:15.532Z,70.63
2023-03-04T22:16:24.206Z,71.21
2023-03-04T22:19:34.729Z,70.59
2023-03-04T22:22:42.895Z,70.63
2023-03-04T22:25:51.433Z,71.95
2023-03-04T22:29:02.988Z,70.89
2023-03-04T22:32:11.128Z,71.10
2023-03-04T22:35:20.674Z,70.92
2023-03-04T22:38:28.759Z,71.08
2023-03-04T22:41:37.512Z,71.72
2023-03-04T22:44:46.975Z,72.28
2023-03-04T22:47:55.640Z,71.70
2023-03-04T22:51:07.423Z,71.98
2023-03-04T22:54:18.308Z,72.61
2023-03-04T22:57:26.429Z,72.66
2023-03-04T23:00:38.124Z,73.39
2023-03-04T23:03:48.336Z,72.88
2023-03-04T23:06:56.848Z,73.36
2023-03-04T23:10:08.528Z,72.56
2023-03-04T23:13:17.119Z,71.95
2023-03-04T23:16:28.556Z,71.95
2023-03-04T23:19:36.689Z,72.08
2023-03-04T23:22:45.619Z,72.24
2023-03-04T23:25:54.193Z,72.42
2023-03-04T23:29:06.137Z,73.34
2023-03-04T23:32:16.143Z,72.29
2023-03-04T23:35:24.947Z,72.89
2023-03-04T23:38:34.680Z,73.75
2023-03-04T23:41:44.105Z,73.25
2023-03-04T23:44:52.930Z,72.56
2023-03-04T23:48:02.666Z,72.36
2023-03-04T23:51:12.118Z,73.92
2023-03-04T23:54:20.907Z,73.28
2023-03-04T23:57:29.556Z,73.44
